11:51
Airports
History
Links
Donate
Help keep this website running!
PayPal
Bitcoin
This page is community maintained. The information is intended for PC simulator navigation or reference.
Always use approved charts for navigation.
SWRG
Fazenda Rancho Maria e Tereza
Fazenda Rancho Maria e Tereza (SWRG)
Guajará-Mirim, Rondônia, Brazil (76850)
4
Lat/Lng:10° 49' 33" S / 65° 13' 43" W
-10.825833 / -65.228611
Elevation:492'ft / 150mMSL
ID / ICAO:SWRG
Runways:1
Longest:05-23
Grass 998m / 3,274ft
Nearby Weather10:00 GMT 2011-02-27
Nearby weather at SLGY, Cap De Av Emilio Beltran located 7.9 nautical miles from SWRG
Altimeter: 29.78
Visibility: 6.2 statute miles
Wind: 6 knots (from 360°)
Temp: 23°c / 73°f
Humidity: 100.0%

METAR: SLGY 271000Z 36006KT 9999 SCT005 SCT020 BKN080 23/23 Q1008 A2978 HR97 RWY CLSD

(Powered by phpweather)
Runway 05 / 23
Dimensions:997.8 x 20.1m 3274' x 66'ft
Surface:Grass
Runway 05 [A]Runway 23 [B]
Heading:039°TH 219°TH
Lat:
Lng:
10° 49' 45.62"S
65° 13' 53.46"W
10° 49' 20.38"S
65° 13' 32.54"W
User Notes and Comments
10° 49' 33" S / 65° 13' 43" W
Distance To
Airport ID:
Nearby Airports
(C) GUAJARA MIRIM 4.7 NM
SBGM NW 305°
(C) Cap De Av Emilio Beltran 7.9 NM
SLGY ( WX ) W 271°
(C) Cap De Av Selin Zeitun Lopez 60.5 NM
SLRI ( WX ) WSW 257°
4 Fazenda Botelho 73.2 NM
SJNN NE 55°
(C) Abuna 78.3 NM
SWAB N 353°
4 Hidreletrica de Jirau 113.9 NM
SWGF NNE 21°
(C) Forte Principe Da Beira 122.9 NM
SWPB SSE 153°
VFR Chart
Flight Planning at SkyVector.com